Terminal Aerodrome Forecast
Issued by NWS Sterling, VA

Current Version | Previous Version | Text Only | Print | Product List | Glossary Off
Versions: 1 2 3 4 5 6 7 8 9 10 11 12 13 14 15 16 17 18 19 20 21 22 23 24 25 26 27 28 29 30 31 32 33

000
FTUS41 KLWX 201136
TAFIAD
TAF
KIAD 201136Z 2012/2118 20008KT P6SM SCT015 BKN030
     FM201700 19010KT P6SM BKN050
     FM201900 19011G20KT P6SM VCTS BKN045CB
     FM210000 21010KT P6SM -SHRA BKN045
     FM210100 22009KT P6SM BKN045
     FM210700 26007KT P6SM SCT060
     FM211500 28011KT P6SM FEW250=

USA.gov is the U.S. government's official web portal to all federal, state and local government web resources and services.